createdAt,value
2023-04-17T00:02:01.797Z,9.00
2023-04-17T00:04:54.498Z,9.10
2023-04-17T00:07:46.768Z,9.10
2023-04-17T00:10:38.413Z,9.00
2023-04-17T00:13:29.862Z,9.00
2023-04-17T00:16:21.311Z,9.00
2023-04-17T00:19:12.845Z,9.00
2023-04-17T00:22:04.346Z,9.10
2023-04-17T00:24:55.735Z,9.00
2023-04-17T00:27:47.306Z,9.00
2023-04-17T00:30:38.478Z,9.00
2023-04-17T00:33:30.155Z,9.00
2023-04-17T00:36:21.814Z,9.00
2023-04-17T00:39:13.532Z,9.00
2023-04-17T00:42:05.479Z,9.00
2023-04-17T00:44:57.767Z,9.00
2023-04-17T00:50:31.547Z,9.00
2023-04-17T00:53:23.508Z,9.00
2023-04-17T00:56:14.942Z,9.00
2023-04-17T00:59:07.377Z,9.00
2023-04-17T01:01:58.597Z,9.00
2023-04-17T01:04:50.107Z,8.90
2023-04-17T01:07:43.287Z,8.90
2023-04-17T01:10:34.485Z,8.90
2023-04-17T01:13:26.754Z,8.90
2023-04-17T01:16:18.551Z,8.90
2023-04-17T01:19:12.950Z,9.00
2023-04-17T01:22:04.248Z,9.00
2023-04-17T01:24:55.931Z,9.00
2023-04-17T01:27:48.882Z,9.00
2023-04-17T01:30:40.445Z,9.00
2023-04-17T01:33:32.694Z,9.00
2023-04-17T01:36:24.181Z,9.00
2023-04-17T01:39:17.376Z,9.00
2023-04-17T01:42:08.730Z,9.00
2023-04-17T01:45:00.160Z,9.00
2023-04-17T01:47:51.383Z,9.00
2023-04-17T01:50:42.835Z,9.00
2023-04-17T01:53:35.096Z,9.00
2023-04-17T01:56:27.398Z,9.00
2023-04-17T01:59:19.017Z,9.00
2023-04-17T02:02:11.113Z,9.00
2023-04-17T02:05:02.864Z,8.90
2023-04-17T02:07:54.191Z,8.90
2023-04-17T02:10:45.594Z,8.80
2023-04-17T02:13:37.184Z,8.80
2023-04-17T02:16:28.944Z,8.80
2023-04-17T02:19:24.196Z,8.80
2023-04-17T02:22:16.082Z,8.80
2023-04-17T02:25:08.415Z,8.80
2023-04-17T02:27:59.744Z,8.80
2023-04-17T02:30:51.131Z,9.00
2023-04-17T02:33:42.829Z,8.90
2023-04-17T02:36:34.629Z,9.00
2023-04-17T02:39:27.534Z,9.00
2023-04-17T02:42:19.838Z,9.00
2023-04-17T02:45:12.511Z,9.00
2023-04-17T02:48:04.397Z,8.90
2023-04-17T02:50:56.090Z,8.90
2023-04-17T02:53:49.221Z,8.80
2023-04-17T02:56:42.228Z,8.90
2023-04-17T02:59:33.626Z,8.80
2023-04-17T03:02:25.105Z,8.90
2023-04-17T03:05:16.933Z,8.90
2023-04-17T03:08:09.473Z,9.00
2023-04-17T03:11:05.589Z,8.90
2023-04-17T03:13:56.895Z,8.80
2023-04-17T03:16:48.517Z,8.70
2023-04-17T03:19:40.115Z,8.70
2023-04-17T03:22:31.898Z,8.70
2023-04-17T03:25:23.805Z,8.70
2023-04-17T03:28:18.724Z,8.70
2023-04-17T03:31:10.099Z,8.80
2023-04-17T03:34:01.452Z,8.80
2023-04-17T03:36:55.764Z,8.80
2023-04-17T03:39:47.399Z,8.70
2023-04-17T03:42:38.758Z,8.70
2023-04-17T03:45:30.105Z,8.70
2023-04-17T03:48:21.988Z,8.70
2023-04-17T03:51:14.725Z,8.70
2023-04-17T03:54:07.410Z,8.70
2023-04-17T03:56:59.050Z,8.70
2023-04-17T03:59:50.343Z,8.70
2023-04-17T04:02:42.886Z,8.70
2023-04-17T04:05:34.502Z,8.70
2023-04-17T04:08:26.611Z,8.70
2023-04-17T04:11:18.612Z,8.70
2023-04-17T04:14:09.933Z,8.70
2023-04-17T04:17:01.776Z,8.70
2023-04-17T04:19:57.561Z,8.70
2023-04-17T04:22:50.041Z,8.70
2023-04-17T04:25:43.650Z,8.60
2023-04-17T04:28:38.406Z,8.60
2023-04-17T04:31:31.978Z,8.70
2023-04-17T04:34:26.122Z,8.70
2023-04-17T04:37:17.872Z,8.70
2023-04-17T04:40:11.894Z,8.70
2023-04-17T04:43:05.960Z,8.70
2023-04-17T04:45:59.098Z,8.80
2023-04-17T04:48:52.453Z,8.70
2023-04-17T04:51:43.710Z,8.80
2023-04-17T04:54:35.074Z,8.70
2023-04-17T04:57:28.601Z,8.70
2023-04-17T05:00:22.177Z,8.70
2023-04-17T05:03:15.369Z,8.80
2023-04-17T05:06:07.951Z,8.80
2023-04-17T05:09:01.462Z,8.80
2023-04-17T05:11:54.086Z,8.90
2023-04-17T05:14:46.405Z,9.00
2023-04-17T05:17:39.187Z,8.90
2023-04-17T05:20:32.116Z,9.00
2023-04-17T05:23:23.447Z,8.90
2023-04-17T05:26:15.336Z,9.00
2023-04-17T05:29:06.845Z,9.00
2023-04-17T05:31:58.338Z,8.90
2023-04-17T05:34:51.494Z,8.90
2023-04-17T05:37:44.606Z,8.90
2023-04-17T05:40:36.027Z,8.80
2023-04-17T05:43:27.640Z,8.80
2023-04-17T05:46:20.853Z,8.80
2023-04-17T05:49:12.568Z,8.90
2023-04-17T05:52:04.368Z,9.00
2023-04-17T05:54:57.677Z,8.90
2023-04-17T05:57:49.135Z,8.90
2023-04-17T06:00:40.514Z,8.90
2023-04-17T06:03:32.423Z,8.90
2023-04-17T06:06:25.866Z,8.90
2023-04-17T06:09:17.694Z,8.90
2023-04-17T06:12:11.995Z,9.00
2023-04-17T06:15:09.337Z,9.00
2023-04-17T06:18:01.650Z,9.00
2023-04-17T06:20:53.307Z,8.90
2023-04-17T06:23:47.968Z,9.00
2023-04-17T06:26:40.604Z,9.00
2023-04-17T06:29:32.341Z,9.00
2023-04-17T06:32:23.814Z,9.10
2023-04-17T06:35:16.463Z,9.20
2023-04-17T06:38:11.246Z,9.20
2023-04-17T06:41:02.656Z,9.10
2023-04-17T06:43:54.325Z,9.20
2023-04-17T06:46:45.889Z,9.10
2023-04-17T06:49:39.141Z,9.30
2023-04-17T06:52:31.843Z,9.30
2023-04-17T06:55:23.440Z,9.30
2023-04-17T06:58:15.200Z,9.30
2023-04-17T07:01:07.814Z,9.40
2023-04-17T07:03:59.120Z,9.40
2023-04-17T07:06:50.453Z,9.40
2023-04-17T07:09:43.254Z,9.30
2023-04-17T07:12:35.067Z,9.40
2023-04-17T07:15:26.929Z,9.40
2023-04-17T07:18:18.576Z,9.40
2023-04-17T07:21:10.079Z,9.40
2023-04-17T07:24:01.544Z,9.40
2023-04-17T07:26:53.032Z,9.40
2023-04-17T07:29:46.588Z,9.40
2023-04-17T07:35:21.639Z,9.50
2023-04-17T07:38:12.990Z,9.50
2023-04-17T07:41:04.642Z,9.60
2023-04-17T07:43:58.431Z,9.70
2023-04-17T07:46:49.347Z,9.80
2023-04-17T07:49:40.898Z,9.90
2023-04-17T07:52:32.829Z,10.00
2023-04-17T07:55:24.473Z,10.00
2023-04-17T07:58:16.608Z,10.10
2023-04-17T08:03:49.484Z,10.10
2023-04-17T08:06:41.274Z,10.10
2023-04-17T08:09:32.875Z,10.30
2023-04-17T08:12:24.070Z,10.30
2023-04-17T08:15:15.895Z,10.30
2023-04-17T08:18:08.371Z,10.40
2023-04-17T08:20:59.992Z,10.40
2023-04-17T08:23:51.661Z,10.30
2023-04-17T08:26:43.432Z,10.40
2023-04-17T08:29:35.196Z,10.40
2023-04-17T08:32:27.042Z,10.50
2023-04-17T08:35:19.264Z,10.40
2023-04-17T08:38:12.954Z,10.50
2023-04-17T08:43:49.999Z,10.60
2023-04-17T08:46:41.662Z,10.50
2023-04-17T08:49:35.918Z,10.40
2023-04-17T08:52:27.202Z,10.40
2023-04-17T08:58:04.451Z,10.40
2023-04-17T09:00:56.277Z,10.30
2023-04-17T09:03:49.856Z,10.40
2023-04-17T09:09:47.021Z,10.50
2023-04-17T09:12:40.713Z,10.50
2023-04-17T09:15:33.814Z,10.60
2023-04-17T09:18:31.423Z,10.60
2023-04-17T09:21:24.622Z,10.60
2023-04-17T09:24:16.430Z,10.60
2023-04-17T09:27:25.160Z,10.70
2023-04-17T09:30:17.845Z,10.80
2023-04-17T09:33:10.524Z,10.80
2023-04-17T09:36:24.360Z,10.70
2023-04-17T09:39:24.750Z,10.80
2023-04-17T09:42:16.298Z,10.80
2023-04-17T09:45:22.630Z,10.90
2023-04-17T09:48:15.436Z,11.00
2023-04-17T09:51:08.033Z,11.00
2023-04-17T09:54:01.149Z,11.00
2023-04-17T09:56:54.840Z,10.90
2023-04-17T09:59:49.204Z,10.90
2023-04-17T10:02:43.225Z,10.90
2023-04-17T10:05:35.017Z,10.90
2023-04-17T10:08:27.285Z,10.90
2023-04-17T10:11:19.116Z,10.80
2023-04-17T10:14:16.190Z,10.90
2023-04-17T10:17:26.329Z,10.90
2023-04-17T10:20:39.170Z,11.00
2023-04-17T10:23:35.581Z,10.90
2023-04-17T10:26:51.856Z,10.90
2023-04-17T10:29:55.835Z,10.80
2023-04-17T10:32:50.202Z,10.90
2023-04-17T10:35:42.052Z,10.80
2023-04-17T10:38:37.758Z,10.70
2023-04-17T10:41:30.828Z,10.80
2023-04-17T10:44:22.571Z,10.80
2023-04-17T10:47:15.016Z,10.80
2023-04-17T10:50:10.309Z,10.90
2023-04-17T10:53:02.441Z,11.00
2023-04-17T10:55:56.994Z,11.10
2023-04-17T10:59:04.690Z,11.00
2023-04-17T11:02:03.145Z,10.90
2023-04-17T11:05:04.823Z,11.00
2023-04-17T11:07:58.611Z,11.00
2023-04-17T11:10:54.946Z,10.90
2023-04-17T11:13:49.286Z,11.00
2023-04-17T11:16:44.442Z,11.20
2023-04-17T11:19:38.206Z,11.10
2023-04-17T11:22:32.369Z,11.20
2023-04-17T11:25:27.563Z,11.30
2023-04-17T11:28:22.508Z,11.20
2023-04-17T11:31:21.628Z,11.40
2023-04-17T11:34:22.958Z,11.30
2023-04-17T11:37:17.473Z,11.40
2023-04-17T11:40:13.380Z,11.40
2023-04-17T11:43:14.994Z,11.40
2023-04-17T11:46:11.038Z,11.40
2023-04-17T11:49:10.900Z,11.60
2023-04-17T11:52:06.532Z,11.60
2023-04-17T11:55:05.304Z,11.60
2023-04-17T11:58:05.149Z,11.70
2023-04-17T12:01:11.496Z,11.70
2023-04-17T12:06:47.968Z,11.90
2023-04-17T12:09:39.216Z,12.00
2023-04-17T12:12:31.316Z,12.00
2023-04-17T12:15:22.672Z,12.10
2023-04-17T12:18:14.441Z,12.20
2023-04-17T12:21:06.782Z,12.20
2023-04-17T12:23:58.567Z,12.30
2023-04-17T12:26:52.604Z,12.30
2023-04-17T12:29:44.935Z,12.20
2023-04-17T12:32:40.327Z,12.20
2023-04-17T12:35:32.145Z,12.30
2023-04-17T12:38:24.223Z,12.40
2023-04-17T12:41:16.116Z,12.40
2023-04-17T12:44:07.952Z,12.40
2023-04-17T12:46:59.263Z,12.40
2023-04-17T12:49:50.751Z,12.50
2023-04-17T12:52:42.592Z,12.50
2023-04-17T12:55:34.173Z,12.60
2023-04-17T12:58:25.840Z,12.80
2023-04-17T13:01:17.445Z,12.80
2023-04-17T13:04:09.741Z,12.80
2023-04-17T13:07:03.161Z,12.90
2023-04-17T13:09:54.469Z,12.90
2023-04-17T13:15:26.415Z,13.20
2023-04-17T13:18:18.270Z,13.30
2023-04-17T13:21:09.936Z,13.40
2023-04-17T13:24:01.115Z,13.40
2023-04-17T13:26:52.711Z,13.70
2023-04-17T13:29:44.378Z,13.80
2023-04-17T13:32:36.445Z,13.90
2023-04-17T13:35:29.591Z,13.80
2023-04-17T13:38:24.083Z,13.80
2023-04-17T13:41:15.876Z,14.00
2023-04-17T13:44:07.634Z,14.00
2023-04-17T13:46:59.377Z,14.00
2023-04-17T13:49:51.319Z,14.20
2023-04-17T13:52:42.944Z,14.30
2023-04-17T13:55:34.976Z,14.50
2023-04-17T13:58:26.776Z,14.40
2023-04-17T14:01:18.541Z,14.50
2023-04-17T14:04:10.031Z,14.60
2023-04-17T14:07:02.002Z,14.50
2023-04-17T14:09:54.241Z,14.40
2023-04-17T14:12:45.905Z,14.30
2023-04-17T14:15:37.487Z,14.40
2023-04-17T14:18:29.503Z,14.50
2023-04-17T14:21:22.960Z,14.50
2023-04-17T14:26:55.215Z,14.50
2023-04-17T14:29:46.811Z,14.50
2023-04-17T14:32:39.900Z,14.50
2023-04-17T14:38:19.530Z,14.50
2023-04-17T14:41:11.250Z,14.60
2023-04-17T14:44:03.189Z,14.80
2023-04-17T14:46:57.133Z,14.90
2023-04-17T14:52:28.906Z,14.90
2023-04-17T14:55:20.800Z,14.90
2023-04-17T14:58:13.185Z,14.90
2023-04-17T15:01:05.567Z,14.90
2023-04-17T15:04:02.444Z,14.90
2023-04-17T15:09:44.653Z,14.80
2023-04-17T15:12:36.190Z,14.90
2023-04-17T15:15:31.147Z,15.10
2023-04-17T15:18:31.226Z,15.40
2023-04-17T15:21:22.917Z,15.60
2023-04-17T15:24:14.713Z,15.90
2023-04-17T15:27:07.304Z,15.90
2023-04-17T15:29:58.931Z,16.40
2023-04-17T15:32:50.449Z,16.40
2023-04-17T15:35:42.039Z,16.30
2023-04-17T15:38:33.815Z,16.20
2023-04-17T15:41:27.358Z,16.00
2023-04-17T15:44:19.287Z,15.90
2023-04-17T15:47:11.276Z,15.90
2023-04-17T15:50:03.240Z,15.70
2023-04-17T15:52:57.278Z,15.80
2023-04-17T15:55:51.867Z,15.70
2023-04-17T15:58:43.573Z,15.60
2023-04-17T16:01:36.890Z,15.60
2023-04-17T16:04:29.277Z,15.50
2023-04-17T16:07:21.031Z,15.50
2023-04-17T16:10:14.859Z,15.50
2023-04-17T16:13:06.902Z,15.50
2023-04-17T16:16:00.885Z,15.60
2023-04-17T16:18:52.398Z,15.60
2023-04-17T16:21:45.325Z,15.50
2023-04-17T16:24:37.868Z,15.60
2023-04-17T16:27:29.843Z,15.70
2023-04-17T16:30:27.466Z,15.80
2023-04-17T16:33:21.398Z,15.90
2023-04-17T16:36:13.936Z,15.80
2023-04-17T16:39:08.817Z,15.80
2023-04-17T16:42:01.611Z,16.10
2023-04-17T16:44:54.860Z,16.90
2023-04-17T16:47:46.550Z,16.30
2023-04-17T16:50:41.024Z,15.80
2023-04-17T16:53:33.274Z,15.60
2023-04-17T16:56:25.360Z,15.40
2023-04-17T16:59:16.846Z,15.20
2023-04-17T17:02:08.803Z,15.10
2023-04-17T17:05:02.137Z,15.10
2023-04-17T17:07:54.848Z,15.00
2023-04-17T17:10:46.518Z,15.00
2023-04-17T17:13:38.302Z,15.00
2023-04-17T17:19:10.833Z,15.00
2023-04-17T17:22:04.507Z,14.90
2023-04-17T17:24:58.850Z,14.90
2023-04-17T17:27:51.904Z,14.80
2023-04-17T17:33:22.844Z,14.70
2023-04-17T17:36:14.923Z,14.70
2023-04-17T17:39:06.545Z,14.70
2023-04-17T17:41:58.314Z,14.70
2023-04-17T17:44:49.971Z,14.60
2023-04-17T17:47:41.489Z,14.60
2023-04-17T17:50:33.688Z,14.60
2023-04-17T17:53:27.163Z,14.50
2023-04-17T17:56:20.383Z,14.50
2023-04-17T17:59:12.077Z,14.50
2023-04-17T18:02:05.201Z,14.50
2023-04-17T18:04:57.515Z,14.40
2023-04-17T18:07:49.482Z,14.50
2023-04-17T18:10:40.688Z,14.50
2023-04-17T18:13:51.837Z,14.40
2023-04-17T18:16:44.153Z,14.40
2023-04-17T18:19:40.666Z,14.30
2023-04-17T18:25:18.161Z,14.20
2023-04-17T18:28:09.571Z,14.20
2023-04-17T18:31:00.997Z,14.10
2023-04-17T18:33:53.225Z,14.10
2023-04-17T18:36:50.057Z,14.00
2023-04-17T18:39:41.324Z,14.00
2023-04-17T18:42:32.864Z,13.90
2023-04-17T18:45:24.587Z,13.90
2023-04-17T18:50:55.570Z,13.80
2023-04-17T18:53:50.384Z,13.80
2023-04-17T18:59:26.475Z,13.80
2023-04-17T19:02:18.539Z,13.80
2023-04-17T19:05:17.069Z,13.70
2023-04-17T19:08:11.340Z,13.70
2023-04-17T19:11:09.786Z,13.70
2023-04-17T19:14:03.703Z,13.70
2023-04-17T19:19:36.708Z,13.60
2023-04-17T19:25:08.601Z,13.60
2023-04-17T19:28:01.456Z,13.50
2023-04-17T19:33:32.603Z,13.60
2023-04-17T19:36:23.923Z,13.50
2023-04-17T19:39:18.652Z,13.60
2023-04-17T19:42:10.103Z,13.60
2023-04-17T19:47:42.335Z,13.60
2023-04-17T19:53:12.804Z,13.50
2023-04-17T19:58:43.958Z,13.30
2023-04-17T20:04:20.438Z,13.20
2023-04-17T20:07:12.053Z,13.20
2023-04-17T20:10:03.912Z,13.20
2023-04-17T20:15:34.727Z,13.30
2023-04-17T20:18:26.020Z,13.30
2023-04-17T20:21:18.711Z,13.20
2023-04-17T20:24:10.914Z,13.10
2023-04-17T20:29:43.563Z,13.00
2023-04-17T20:35:17.926Z,12.90
2023-04-17T20:40:58.776Z,12.70
2023-04-17T20:43:59.234Z,12.70
2023-04-17T20:49:40.146Z,12.60
2023-04-17T20:52:33.400Z,12.60
2023-04-17T20:55:24.611Z,12.50
2023-04-17T21:01:01.883Z,12.40
2023-04-17T21:06:32.842Z,12.20
2023-04-17T21:09:24.900Z,12.20
2023-04-17T21:14:56.915Z,12.20
2023-04-17T21:17:48.764Z,12.20
2023-04-17T21:20:42.140Z,12.10
2023-04-17T21:23:33.668Z,12.00
2023-04-17T21:26:24.953Z,11.90
2023-04-17T21:29:16.740Z,11.80
2023-04-17T21:32:08.592Z,11.80
2023-04-17T21:34:59.860Z,11.80
2023-04-17T21:37:51.139Z,11.80
2023-04-17T21:43:20.763Z,11.70
2023-04-17T21:48:53.514Z,11.80
2023-04-17T21:54:24.344Z,11.70
2023-04-17T21:59:55.926Z,11.60
2023-04-17T22:05:26.909Z,11.60
2023-04-17T22:08:18.319Z,11.60
2023-04-17T22:13:48.149Z,11.60
2023-04-17T22:16:39.739Z,11.50
2023-04-17T22:22:11.784Z,11.50
2023-04-17T22:25:03.064Z,11.50
2023-04-17T22:30:35.917Z,11.40
2023-04-17T22:33:28.126Z,11.40
2023-04-17T22:36:19.867Z,11.30
2023-04-17T22:39:12.967Z,11.30
2023-04-17T22:44:43.394Z,11.20
2023-04-17T22:47:34.641Z,11.30
2023-04-17T22:50:26.251Z,11.30
2023-04-17T22:53:17.909Z,11.20
2023-04-17T22:58:47.818Z,11.20
2023-04-17T23:04:20.606Z,11.20
2023-04-17T23:09:55.316Z,11.20
2023-04-17T23:12:46.458Z,11.20
2023-04-17T23:18:21.624Z,11.20
2023-04-17T23:23:52.409Z,11.20
2023-04-17T23:29:21.949Z,11.20
2023-04-17T23:32:13.567Z,11.20
2023-04-17T23:35:04.880Z,11.20
2023-04-17T23:37:58.758Z,11.10
2023-04-17T23:43:29.673Z,11.20
2023-04-17T23:46:21.306Z,11.20
2023-04-17T23:49:12.940Z,11.20
2023-04-17T23:52:04.296Z,11.30
2023-04-17T23:54:55.544Z,11.30
2023-04-17T23:57:47.067Z,11.30
